Deunquat, Ohio
Current Conditions -  °F | °C
As of 1:53 PM on Thursday 18 Dec 2014 (Local Time) from KMNN Reporting Station
Overcast Overcast  
Wind Chill: 21°   Ceiling: 1700
Heat Index: 28°   Visibility: 8mi
Dew Point: 21°   Wind: 7mph
Humidity: 75%   Direction: 310°NW
Pressure: 30.18"   Gusts: NA
Location:  40.948°N, 83.1346°W
Report Text: KMNN 181853Z AUTO 31006KT 8SM OVC017 M02/M06 A3018 RMK AO2 SLP233 T10221061 TSNO
Loading
Personal Weather Stations






























Interactive Weather Map New forecast layout! Learn more

10-Day Weather Forecast

Advertisements
Track Severe Weather on mobile